createdAt,value
2016-10-04T00:00:02.194Z,57.3
2016-10-04T00:10:02.133Z,57.3
2016-10-04T00:20:02.132Z,57.3
2016-10-04T00:30:02.152Z,56.8
2016-10-04T00:40:02.142Z,57.3
2016-10-04T00:50:02.130Z,57.3
2016-10-04T01:00:02.160Z,56.2
2016-10-04T01:10:02.142Z,56.2
2016-10-04T01:20:02.128Z,56.2
2016-10-04T01:30:02.144Z,56.2
2016-10-04T01:40:02.143Z,56.2
2016-10-04T01:50:02.166Z,56.2
2016-10-04T02:00:02.130Z,56.2
2016-10-04T02:10:02.131Z,56.2
2016-10-04T02:20:02.158Z,55.7
2016-10-04T02:30:02.150Z,56.2
2016-10-04T02:40:02.162Z,56.2
2016-10-04T02:50:02.123Z,56.2
2016-10-04T03:00:02.119Z,56.2
2016-10-04T03:10:02.143Z,56.2
2016-10-04T03:20:02.121Z,56.2
2016-10-04T03:30:02.135Z,55.7
2016-10-04T03:40:02.120Z,55.7
2016-10-04T03:50:02.117Z,56.8
2016-10-04T04:00:02.138Z,55.7
2016-10-04T04:10:02.116Z,56.2
2016-10-04T04:20:02.129Z,56.2
2016-10-04T04:30:02.120Z,56.2
2016-10-04T04:40:02.118Z,55.7
2016-10-04T04:50:02.127Z,56.2
2016-10-04T05:00:02.125Z,56.2
2016-10-04T05:10:02.120Z,56.2
2016-10-04T05:20:02.118Z,55.7
2016-10-04T05:30:02.121Z,56.2
2016-10-04T05:40:02.115Z,55.7
2016-10-04T05:50:02.114Z,56.2
2016-10-04T06:00:02.114Z,55.7
2016-10-04T06:10:02.119Z,55.7
2016-10-04T06:20:02.126Z,55.1
2016-10-04T06:30:02.138Z,55.1
2016-10-04T06:40:02.166Z,55.1
2016-10-04T06:50:02.116Z,55.1
2016-10-04T07:00:02.120Z,55.1
2016-10-04T07:10:02.166Z,55.7
2016-10-04T07:20:02.126Z,55.7
2016-10-04T07:30:02.140Z,55.1
2016-10-04T07:40:02.129Z,55.1
2016-10-04T07:50:02.110Z,55.7
2016-10-04T08:00:02.131Z,55.1
2016-10-04T08:10:02.130Z,55.1
2016-10-04T08:20:02.145Z,55.7
2016-10-04T08:30:02.155Z,55.7
2016-10-04T08:40:02.164Z,55.7
2016-10-04T08:50:02.182Z,55.7
2016-10-04T09:00:02.164Z,56.8
2016-10-04T09:10:02.155Z,56.2
2016-10-04T09:20:02.138Z,56.2
2016-10-04T09:30:02.135Z,55.1
2016-10-04T09:40:02.180Z,56.2
2016-10-04T09:50:02.163Z,56.2
2016-10-04T10:00:02.140Z,56.2
2016-10-04T10:10:02.140Z,56.8
2016-10-04T10:20:02.154Z,56.8
2016-10-04T10:30:02.166Z,57.3
2016-10-04T10:40:02.163Z,57.3
2016-10-04T10:50:02.150Z,57.3
2016-10-04T11:00:00.484Z,56.8
2016-10-04T11:10:10.428Z,57.3
2016-10-04T11:20:02.146Z,57.3
2016-10-04T11:30:02.129Z,57.3
2016-10-04T11:40:02.155Z,57.8
2016-10-04T11:50:02.126Z,57.3
2016-10-04T12:00:02.132Z,57.3
2016-10-04T12:10:02.182Z,57.3
2016-10-04T12:20:02.127Z,57.3
2016-10-04T12:30:02.112Z,57.8
2016-10-04T12:40:02.133Z,57.3
2016-10-04T12:50:02.122Z,58.4
2016-10-04T13:00:02.169Z,57.8
2016-10-04T13:10:02.138Z,58.4
2016-10-04T13:20:02.142Z,58.4
2016-10-04T13:30:02.132Z,58.4
2016-10-04T13:40:02.153Z,58.4
2016-10-04T13:50:02.131Z,58.9
2016-10-04T14:00:02.141Z,57.8
2016-10-04T14:10:02.134Z,58.9
2016-10-04T14:20:02.141Z,58.4
2016-10-04T14:30:02.129Z,58.9
2016-10-04T14:40:02.135Z,58.4
2016-10-04T14:50:02.167Z,58.9
2016-10-04T15:00:02.137Z,58.4
2016-10-04T15:10:02.145Z,58.4
2016-10-04T15:20:02.150Z,58.4
2016-10-04T15:30:02.129Z,58.4
2016-10-04T15:40:02.131Z,58.4
2016-10-04T15:50:02.190Z,58.4
2016-10-04T16:00:02.173Z,57.8
2016-10-04T16:10:02.141Z,58.4
2016-10-04T16:20:02.145Z,58.4
2016-10-04T16:30:02.147Z,57.8
2016-10-04T16:40:02.160Z,57.3
2016-10-04T16:50:02.136Z,57.8
2016-10-04T17:00:02.163Z,58.4
2016-10-04T17:10:01.563Z,58.4
2016-10-04T17:20:10.458Z,57.8
2016-10-04T17:30:10.421Z,58.4
2016-10-04T17:40:10.425Z,58.4
2016-10-04T17:50:10.457Z,58.4
2016-10-04T18:00:05.585Z,58.4
2016-10-04T18:10:02.169Z,58.4
2016-10-04T18:20:02.128Z,58.4
2016-10-04T18:30:02.140Z,57.3
2016-10-04T18:40:02.123Z,57.8
2016-10-04T18:50:02.165Z,57.8
2016-10-04T19:00:02.127Z,57.3
2016-10-04T19:10:02.142Z,57.3
2016-10-04T19:20:02.137Z,57.3
2016-10-04T19:30:02.140Z,57.3
2016-10-04T19:40:02.181Z,57.3
2016-10-04T19:50:02.136Z,56.8
2016-10-04T20:00:02.191Z,56.2
2016-10-04T20:10:02.132Z,56.2
2016-10-04T20:20:10.425Z,56.8
2016-10-04T20:30:10.425Z,56.2
2016-10-04T20:40:10.464Z,56.8
2016-10-04T20:50:06.881Z,56.8
2016-10-04T21:00:02.173Z,56.2
2016-10-04T21:10:02.151Z,56.8
2016-10-04T21:20:02.162Z,56.2
2016-10-04T21:30:02.161Z,56.2
2016-10-04T21:40:02.133Z,56.2
2016-10-04T21:50:02.140Z,56.2
2016-10-04T22:00:02.163Z,56.2
2016-10-04T22:10:02.145Z,55.7
2016-10-04T22:20:02.132Z,55.7
2016-10-04T22:30:02.150Z,55.7
2016-10-04T22:40:02.134Z,56.2
2016-10-04T22:50:02.142Z,55.7
2016-10-04T23:00:02.159Z,55.1
2016-10-04T23:10:02.127Z,55.1
2016-10-04T23:20:02.129Z,55.1
2016-10-04T23:30:02.124Z,55.1
2016-10-04T23:40:02.130Z,55.1
2016-10-04T23:50:02.140Z,54.6
